sensor_id;sensor_type;location;lat;lon;timestamp;pressure;altitude;pressure_sealevel;temperature;humidity
60489;BME280;46331;49.252;8.904;2024-03-29T00:00:17;97999.50;;;6.61;74.89
60489;BME280;46331;49.252;8.904;2024-03-29T00:00:58;97997.91;;;6.65;74.87
60489;BME280;46331;49.252;8.904;2024-03-29T00:01:40;97997.66;;;6.67;74.12
60489;BME280;46331;49.252;8.904;2024-03-29T00:02:20;97998.16;;;6.63;74.19
60489;BME280;46331;49.252;8.904;2024-03-29T00:03:01;97995.34;;;6.70;74.35
60489;BME280;46331;49.252;8.904;2024-03-29T00:03:41;97982.44;;;6.74;74.02
60489;BME280;46331;49.252;8.904;2024-03-29T00:04:23;97986.41;;;6.76;72.36
60489;BME280;46331;49.252;8.904;2024-03-29T00:05:04;97978.53;;;6.82;72.43
60489;BME280;46331;49.252;8.904;2024-03-29T00:05:44;97981.19;;;6.87;71.27
60489;BME280;46331;49.252;8.904;2024-03-29T00:06:25;97982.25;;;6.91;71.24
60489;BME280;46331;49.252;8.904;2024-03-29T00:07:05;97980.97;;;6.93;69.70
60489;BME280;46331;49.252;8.904;2024-03-29T00:07:46;97973.66;;;7.06;67.93
60489;BME280;46331;49.252;8.904;2024-03-29T00:08:27;97975.78;;;7.14;68.23
60489;BME280;46331;49.252;8.904;2024-03-29T00:09:07;97975.53;;;7.21;67.89
60489;BME280;46331;49.252;8.904;2024-03-29T00:09:48;97972.41;;;7.29;67.41
60489;BME280;46331;49.252;8.904;2024-03-29T00:10:29;97972.44;;;7.34;67.33
60489;BME280;46331;49.252;8.904;2024-03-29T00:11:12;97961.34;;;7.37;66.58
60489;BME280;46331;49.252;8.904;2024-03-29T00:11:53;97964.81;;;7.43;66.75
60489;BME280;46331;49.252;8.904;2024-03-29T00:12:33;97961.91;;;7.49;67.46
60489;BME280;46331;49.252;8.904;2024-03-29T00:13:14;97960.09;;;7.55;66.88
60489;BME280;46331;49.252;8.904;2024-03-29T00:13:54;97960.34;;;7.59;66.79
60489;BME280;46331;49.252;8.904;2024-03-29T00:14:35;97950.06;;;7.62;66.12
60489;BME280;46331;49.252;8.904;2024-03-29T00:15:15;97957.47;;;7.65;65.76
60489;BME280;46331;49.252;8.904;2024-03-29T00:15:56;97948.50;;;7.72;65.74
60489;BME280;46331;49.252;8.904;2024-03-29T00:16:36;97941.91;;;7.69;64.59
60489;BME280;46331;49.252;8.904;2024-03-29T00:17:17;97947.72;;;7.76;64.41
60489;BME280;46331;49.252;8.904;2024-03-29T00:17:58;97943.50;;;7.75;63.68
60489;BME280;46331;49.252;8.904;2024-03-29T00:18:39;97946.41;;;7.84;64.15
60489;BME280;46331;49.252;8.904;2024-03-29T00:19:19;97943.78;;;7.89;63.54
60489;BME280;46331;49.252;8.904;2024-03-29T00:20:00;97941.94;;;7.95;63.24
60489;BME280;46331;49.252;8.904;2024-03-29T00:20:41;97938.25;;;7.91;62.34
60489;BME280;46331;49.252;8.904;2024-03-29T00:21:21;97935.06;;;7.94;62.15
60489;BME280;46331;49.252;8.904;2024-03-29T00:22:02;97944.31;;;8.01;61.56
60489;BME280;46331;49.252;8.904;2024-03-29T00:22:42;97943.78;;;8.10;61.37
60489;BME280;46331;49.252;8.904;2024-03-29T00:23:23;97938.78;;;8.13;61.06
60489;BME280;46331;49.252;8.904;2024-03-29T00:24:04;97932.16;;;8.11;60.08
60489;BME280;46331;49.252;8.904;2024-03-29T00:24:44;97940.09;;;8.21;60.37
60489;BME280;46331;49.252;8.904;2024-03-29T00:25:25;97933.75;;;8.27;61.03
60489;BME280;46331;49.252;8.904;2024-03-29T00:26:05;97936.38;;;8.32;61.70
60489;BME280;46331;49.252;8.904;2024-03-29T00:26:47;97931.09;;;8.32;62.02
60489;BME280;46331;49.252;8.904;2024-03-29T00:27:28;97928.97;;;8.34;62.65
60489;BME280;46331;49.252;8.904;2024-03-29T00:28:08;97925.00;;;8.37;63.19
60489;BME280;46331;49.252;8.904;2024-03-29T00:28:49;97918.69;;;8.38;63.60
60489;BME280;46331;49.252;8.904;2024-03-29T00:29:29;97910.75;;;8.33;63.57
60489;BME280;46331;49.252;8.904;2024-03-29T00:30:10;97928.44;;;8.37;64.09
60489;BME280;46331;49.252;8.904;2024-03-29T00:30:51;97917.09;;;8.32;64.32
60489;BME280;46331;49.252;8.904;2024-03-29T00:31:31;97919.22;;;8.35;64.45
60489;BME280;46331;49.252;8.904;2024-03-29T00:32:12;97919.22;;;8.35;63.69
60489;BME280;46331;49.252;8.904;2024-03-29T00:32:53;97915.50;;;8.31;62.84
60489;BME280;46331;49.252;8.904;2024-03-29T00:33:33;97917.09;;;8.32;62.11
60489;BME280;46331;49.252;8.904;2024-03-29T00:34:14;97924.50;;;8.35;62.42
60489;BME280;46331;49.252;8.904;2024-03-29T00:34:54;97918.13;;;8.36;61.98
60489;BME280;46331;49.252;8.904;2024-03-29T00:35:36;97920.25;;;8.39;62.16
60489;BME280;46331;49.252;8.904;2024-03-29T00:36:16;97918.69;;;8.38;62.64
60489;BME280;46331;49.252;8.904;2024-03-29T00:36:57;97918.41;;;8.19;62.10
60489;BME280;46331;49.252;8.904;2024-03-29T00:37:37;97918.16;;;8.31;62.72
60489;BME280;46331;49.252;8.904;2024-03-29T00:38:18;97921.03;;;8.34;62.70
60489;BME280;46331;49.252;8.904;2024-03-29T00:38:58;97927.13;;;8.35;62.81
60489;BME280;46331;49.252;8.904;2024-03-29T00:39:39;97926.06;;;8.36;62.77
60489;BME280;46331;49.252;8.904;2024-03-29T00:40:19;97918.94;;;8.36;62.62
60489;BME280;46331;49.252;8.904;2024-03-29T00:41:00;97926.06;;;8.36;61.46
60489;BME280;46331;49.252;8.904;2024-03-29T00:41:41;97928.69;;;8.36;60.78
60489;BME280;46331;49.252;8.904;2024-03-29T00:42:21;97927.91;;;8.40;60.57
60489;BME280;46331;49.252;8.904;2024-03-29T00:43:02;97930.03;;;8.38;59.07
60489;BME280;46331;49.252;8.904;2024-03-29T00:43:42;97930.53;;;8.40;59.30
60489;BME280;46331;49.252;8.904;2024-03-29T00:44:23;97930.81;;;8.59;59.37
60489;BME280;46331;49.252;8.904;2024-03-29T00:45:04;97931.03;;;8.68;59.01
60489;BME280;46331;49.252;8.904;2024-03-29T00:45:44;97924.94;;;8.73;58.60
60489;BME280;46331;49.252;8.904;2024-03-29T00:46:25;97927.31;;;8.80;58.34
60489;BME280;46331;49.252;8.904;2024-03-29T00:47:05;97928.34;;;8.84;58.43
60489;BME280;46331;49.252;8.904;2024-03-29T00:47:46;97919.91;;;8.82;58.30
60489;BME280;46331;49.252;8.904;2024-03-29T00:48:26;97920.94;;;8.86;58.16
60489;BME280;46331;49.252;8.904;2024-03-29T00:49:07;97924.88;;;8.88;58.06
60489;BME280;46331;49.252;8.904;2024-03-29T00:49:48;97927.81;;;8.92;58.89
60489;BME280;46331;49.252;8.904;2024-03-29T00:50:28;97930.19;;;8.93;58.80
60489;BME280;46331;49.252;8.904;2024-03-29T00:51:09;97922.50;;;8.97;59.15
60489;BME280;46331;49.252;8.904;2024-03-29T00:51:49;97924.88;;;8.93;59.49
60489;BME280;46331;49.252;8.904;2024-03-29T00:52:30;97920.13;;;8.95;58.55
60489;BME280;46331;49.252;8.904;2024-03-29T00:53:10;97919.06;;;8.97;58.60
60489;BME280;46331;49.252;8.904;2024-03-29T00:53:51;97922.22;;;8.99;58.04
60489;BME280;46331;49.252;8.904;2024-03-29T00:54:32;97912.19;;;8.95;57.83
60489;BME280;46331;49.252;8.904;2024-03-29T00:55:13;97916.38;;;9.02;57.52
60489;BME280;46331;49.252;8.904;2024-03-29T00:55:54;97916.41;;;8.91;56.50
60489;BME280;46331;49.252;8.904;2024-03-29T00:56:34;97922.44;;;9.02;57.09
60489;BME280;46331;49.252;8.904;2024-03-29T00:57:15;97907.13;;;9.04;55.75
60489;BME280;46331;49.252;8.904;2024-03-29T00:57:56;97911.59;;;9.09;55.83
60489;BME280;46331;49.252;8.904;2024-03-29T00:58:36;97907.59;;;9.11;55.86
60489;BME280;46331;49.252;8.904;2024-03-29T00:59:17;97912.88;;;9.17;55.86
60489;BME280;46331;49.252;8.904;2024-03-29T00:59:57;97907.84;;;9.20;55.80
60489;BME280;46331;49.252;8.904;2024-03-29T01:00:38;97900.94;;;9.24;55.71
60489;BME280;46331;49.252;8.904;2024-03-29T01:01:18;97905.16;;;9.30;55.20
60489;BME280;46331;49.252;8.904;2024-03-29T01:01:59;97900.88;;;9.35;55.46
60489;BME280;46331;49.252;8.904;2024-03-29T01:02:39;97895.03;;;9.38;55.56
60489;BME280;46331;49.252;8.904;2024-03-29T01:03:20;97893.16;;;9.43;54.75
60489;BME280;46331;49.252;8.904;2024-03-29T01:04:00;97894.19;;;9.47;54.69
60489;BME280;46331;49.252;8.904;2024-03-29T01:04:41;97889.91;;;9.52;55.53
60489;BME280;46331;49.252;8.904;2024-03-29T01:05:21;97883.06;;;9.51;54.97
60489;BME280;46331;49.252;8.904;2024-03-29T01:06:02;97896.25;;;9.56;55.16
60489;BME280;46331;49.252;8.904;2024-03-29T01:06:43;97881.16;;;9.56;54.56
60489;BME280;46331;49.252;8.904;2024-03-29T01:07:23;97880.88;;;9.58;55.46
60489;BME280;46331;49.252;8.904;2024-03-29T01:08:05;97885.38;;;9.57;54.01
60489;BME280;46331;49.252;8.904;2024-03-29T01:08:46;97881.69;;;9.58;54.22
60489;BME280;46331;49.252;8.904;2024-03-29T01:09:26;97883.50;;;9.58;53.95
60489;BME280;46331;49.252;8.904;2024-03-29T01:10:08;97880.81;;;9.68;53.73
60489;BME280;46331;49.252;8.904;2024-03-29T01:10:49;97886.31;;;9.72;53.30
60489;BME280;46331;49.252;8.904;2024-03-29T01:11:30;97887.16;;;9.67;53.56
60489;BME280;46331;49.252;8.904;2024-03-29T01:12:11;97881.59;;;9.69;53.18
60489;BME280;46331;49.252;8.904;2024-03-29T01:12:51;97882.84;;;9.76;53.39
60489;BME280;46331;49.252;8.904;2024-03-29T01:13:32;97891.56;;;9.82;53.23
60489;BME280;46331;49.252;8.904;2024-03-29T01:14:12;97875.91;;;9.85;52.86
60489;BME280;46331;49.252;8.904;2024-03-29T01:14:53;97885.16;;;9.88;53.37
60489;BME280;46331;49.252;8.904;2024-03-29T01:15:33;97879.28;;;9.91;53.73
60489;BME280;46331;49.252;8.904;2024-03-29T01:16:14;97881.66;;;9.93;53.76
60489;BME280;46331;49.252;8.904;2024-03-29T01:16:54;97882.44;;;9.93;53.48
60489;BME280;46331;49.252;8.904;2024-03-29T01:17:35;97876.38;;;9.93;53.23
60489;BME280;46331;49.252;8.904;2024-03-29T01:18:15;97874.75;;;9.97;52.77
60489;BME280;46331;49.252;8.904;2024-03-29T01:18:59;97869.88;;;10.09;52.52
60489;BME280;46331;49.252;8.904;2024-03-29T01:19:39;97866.53;;;9.98;52.46
60489;BME280;46331;49.252;8.904;2024-03-29T01:20:20;97870.78;;;9.94;51.67
60489;BME280;46331;49.252;8.904;2024-03-29T01:21:01;97878.69;;;9.99;52.08
60489;BME280;46331;49.252;8.904;2024-03-29T01:21:41;97874.28;;;9.90;51.57
60489;BME280;46331;49.252;8.904;2024-03-29T01:22:22;97868.06;;;10.05;51.94
60489;BME280;46331;49.252;8.904;2024-03-29T01:23:03;97874.16;;;10.05;51.99
60489;BME280;46331;49.252;8.904;2024-03-29T01:23:44;97871.69;;;10.14;51.77
60489;BME280;46331;49.252;8.904;2024-03-29T01:24:24;97867.38;;;10.18;51.73
60489;BME280;46331;49.252;8.904;2024-03-29T01:25:05;97860.75;;;10.20;51.86
60489;BME280;46331;49.252;8.904;2024-03-29T01:25:48;97854.63;;;10.25;51.35
60489;BME280;46331;49.252;8.904;2024-03-29T01:26:28;97863.06;;;10.27;52.45
60489;BME280;46331;49.252;8.904;2024-03-29T01:27:09;97864.44;;;10.25;51.41
60489;BME280;46331;49.252;8.904;2024-03-29T01:27:50;97869.66;;;10.30;51.89
60489;BME280;46331;49.252;8.904;2024-03-29T01:28:30;97869.75;;;10.19;51.63
60489;BME280;46331;49.252;8.904;2024-03-29T01:29:10;97877.69;;;10.19;50.97
60489;BME280;46331;49.252;8.904;2024-03-29T01:29:51;97874.22;;;10.24;51.13
60489;BME280;46331;49.252;8.904;2024-03-29T01:30:32;97875.47;;;10.37;50.94
60489;BME280;46331;49.252;8.904;2024-03-29T01:31:12;97873.53;;;10.43;51.16
60489;BME280;46331;49.252;8.904;2024-03-29T01:31:53;97877.47;;;10.45;51.29
60489;BME280;46331;49.252;8.904;2024-03-29T01:32:34;97877.47;;;10.45;52.05
60489;BME280;46331;49.252;8.904;2024-03-29T01:33:14;97879.84;;;10.47;51.60
60489;BME280;46331;49.252;8.904;2024-03-29T01:33:55;97882.50;;;10.47;51.03
60489;BME280;46331;49.252;8.904;2024-03-29T01:34:38;97883.06;;;10.44;51.70
60489;BME280;46331;49.252;8.904;2024-03-29T01:35:18;97886.84;;;10.37;51.75
60489;BME280;46331;49.252;8.904;2024-03-29T01:35:59;97893.94;;;10.42;52.18
60489;BME280;46331;49.252;8.904;2024-03-29T01:36:39;97891.00;;;10.44;52.62
60489;BME280;46331;49.252;8.904;2024-03-29T01:37:20;97888.16;;;10.40;52.02
60489;BME280;46331;49.252;8.904;2024-03-29T01:38:00;97894.50;;;10.39;52.91
60489;BME280;46331;49.252;8.904;2024-03-29T01:38:41;97892.34;;;10.41;52.87
60489;BME280;46331;49.252;8.904;2024-03-29T01:39:22;97892.63;;;10.40;52.79
60489;BME280;46331;49.252;8.904;2024-03-29T01:40:09;97883.91;;;10.39;52.48
60489;BME280;46331;49.252;8.904;2024-03-29T01:40:50;97871.44;;;10.40;52.44
60489;BME280;46331;49.252;8.904;2024-03-29T01:41:31;97866.94;;;10.40;52.36
60489;BME280;46331;49.252;8.904;2024-03-29T01:42:11;97866.94;;;10.40;51.88
60489;BME280;46331;49.252;8.904;2024-03-29T01:42:55;97858.16;;;10.45;51.38
60489;BME280;46331;49.252;8.904;2024-03-29T01:43:35;97849.25;;;10.35;51.17
60489;BME280;46331;49.252;8.904;2024-03-29T01:44:16;97852.97;;;10.34;50.88
60489;BME280;46331;49.252;8.904;2024-03-29T01:44:57;97850.25;;;10.40;50.99
60489;BME280;46331;49.252;8.904;2024-03-29T01:45:39;97836.44;;;10.43;50.99
60489;BME280;46331;49.252;8.904;2024-03-29T01:46:23;97829.78;;;10.45;50.28
60489;BME280;46331;49.252;8.904;2024-03-29T01:47:04;97837.44;;;10.47;50.72
60489;BME280;46331;49.252;8.904;2024-03-29T01:47:46;97831.38;;;10.46;50.69
60489;BME280;46331;49.252;8.904;2024-03-29T01:48:27;97826.56;;;10.48;50.52
60489;BME280;46331;49.252;8.904;2024-03-29T01:49:08;97835.25;;;10.54;50.32
60489;BME280;46331;49.252;8.904;2024-03-29T01:49:49;97836.88;;;10.50;50.09
60489;BME280;46331;49.252;8.904;2024-03-29T01:50:31;97842.06;;;10.60;50.53
60489;BME280;46331;49.252;8.904;2024-03-29T01:51:13;97834.84;;;10.66;50.29
60489;BME280;46331;49.252;8.904;2024-03-29T01:51:54;97837.56;;;10.61;50.60
60489;BME280;46331;49.252;8.904;2024-03-29T01:52:35;97831.25;;;10.57;50.25
60489;BME280;46331;49.252;8.904;2024-03-29T01:53:18;97824.03;;;10.62;50.33
60489;BME280;46331;49.252;8.904;2024-03-29T01:53:59;97830.97;;;10.58;50.00
60489;BME280;46331;49.252;8.904;2024-03-29T01:54:40;97832.50;;;10.64;49.79
60489;BME280;46331;49.252;8.904;2024-03-29T01:55:22;97831.94;;;10.67;50.14
60489;BME280;46331;49.252;8.904;2024-03-29T01:56:04;97823.97;;;10.67;49.66
60489;BME280;46331;49.252;8.904;2024-03-29T01:56:44;97833.75;;;10.67;50.14
60489;BME280;46331;49.252;8.904;2024-03-29T01:57:25;97835.00;;;10.74;49.62
60489;BME280;46331;49.252;8.904;2024-03-29T01:58:08;97832.88;;;10.77;49.95
60489;BME280;46331;49.252;8.904;2024-03-29T01:58:51;97838.88;;;10.82;49.99
60489;BME280;46331;49.252;8.904;2024-03-29T01:59:34;97824.41;;;10.74;50.55
60489;BME280;46331;49.252;8.904;2024-03-29T02:00:15;97826.84;;;10.71;49.44
60489;BME280;46331;49.252;8.904;2024-03-29T02:00:58;97838.38;;;10.80;49.70
60489;BME280;46331;49.252;8.904;2024-03-29T02:01:40;97839.25;;;10.76;49.66
60489;BME280;46331;49.252;8.904;2024-03-29T02:02:21;97843.75;;;10.75;49.92
60489;BME280;46331;49.252;8.904;2024-03-29T02:03:02;97846.13;;;10.77;49.79
60489;BME280;46331;49.252;8.904;2024-03-29T02:03:45;97849.47;;;10.82;49.50
60489;BME280;46331;49.252;8.904;2024-03-29T02:04:26;97857.72;;;10.81;49.49
60489;BME280;46331;49.252;8.904;2024-03-29T02:05:07;97861.47;;;10.80;49.44
60489;BME280;46331;49.252;8.904;2024-03-29T02:05:48;97860.91;;;10.83;49.70
60489;BME280;46331;49.252;8.904;2024-03-29T02:06:29;97862.31;;;10.75;49.30
60489;BME280;46331;49.252;8.904;2024-03-29T02:07:10;97865.97;;;10.79;49.74
60489;BME280;46331;49.252;8.904;2024-03-29T02:07:51;97867.75;;;10.84;50.02
60489;BME280;46331;49.252;8.904;2024-03-29T02:08:33;97863.94;;;10.95;49.72
60489;BME280;46331;49.252;8.904;2024-03-29T02:09:14;97861.88;;;10.87;50.03
60489;BME280;46331;49.252;8.904;2024-03-29T02:09:54;97860.81;;;10.88;49.67
60489;BME280;46331;49.252;8.904;2024-03-29T02:10:35;97869.28;;;10.90;49.10
60489;BME280;46331;49.252;8.904;2024-03-29T02:11:15;97859.59;;;10.80;49.41
60489;BME280;46331;49.252;8.904;2024-03-29T02:11:56;97865.63;;;10.86;49.33
60489;BME280;46331;49.252;8.904;2024-03-29T02:12:37;97861.88;;;10.87;48.86
60489;BME280;46331;49.252;8.904;2024-03-29T02:13:17;97860.25;;;10.91;49.17
60489;BME280;46331;49.252;8.904;2024-03-29T02:13:58;97849.44;;;10.87;49.03
60489;BME280;46331;49.252;8.904;2024-03-29T02:14:38;97862.41;;;10.89;48.82
60489;BME280;46331;49.252;8.904;2024-03-29T02:15:21;97857.59;;;10.91;48.71
60489;BME280;46331;49.252;8.904;2024-03-29T02:16:01;97852.78;;;10.93;48.85
60489;BME280;46331;49.252;8.904;2024-03-29T02:16:42;97863.34;;;10.98;48.76
60489;BME280;46331;49.252;8.904;2024-03-29T02:17:22;97858.53;;;11.00;48.68
60489;BME280;46331;49.252;8.904;2024-03-29T02:18:03;97859.31;;;11.01;48.77
60489;BME280;46331;49.252;8.904;2024-03-29T02:18:43;97865.44;;;11.01;48.58
60489;BME280;46331;49.252;8.904;2024-03-29T02:19:24;97862.50;;;11.03;48.84
60489;BME280;46331;49.252;8.904;2024-03-29T02:20:04;97860.69;;;10.98;48.54
60489;BME280;46331;49.252;8.904;2024-03-29T02:20:46;97853.16;;;11.05;48.82
60489;BME280;46331;49.252;8.904;2024-03-29T02:21:27;97863.00;;;11.05;49.59
60489;BME280;46331;49.252;8.904;2024-03-29T02:22:08;97852.59;;;11.08;49.68
60489;BME280;46331;49.252;8.904;2024-03-29T02:22:54;97854.09;;;11.15;49.59
60489;BME280;46331;49.252;8.904;2024-03-29T02:23:37;97854.19;;;11.09;49.73
60489;BME280;46331;49.252;8.904;2024-03-29T02:24:18;97848.78;;;10.96;48.67
60489;BME280;46331;49.252;8.904;2024-03-29T02:24:59;97845.50;;;11.04;48.75
60489;BME280;46331;49.252;8.904;2024-03-29T02:25:39;97840.47;;;11.02;48.38
60489;BME280;46331;49.252;8.904;2024-03-29T02:26:20;97835.75;;;10.99;48.84
60489;BME280;46331;49.252;8.904;2024-03-29T02:27:00;97845.38;;;10.95;48.65
60489;BME280;46331;49.252;8.904;2024-03-29T02:27:42;97833.53;;;11.06;49.24
60489;BME280;46331;49.252;8.904;2024-03-29T02:28:23;97844.13;;;11.06;49.35
60489;BME280;46331;49.252;8.904;2024-03-29T02:29:03;97839.91;;;11.05;49.36
60489;BME280;46331;49.252;8.904;2024-03-29T02:29:44;97845.50;;;11.04;49.17
60489;BME280;46331;49.252;8.904;2024-03-29T02:30:24;97847.84;;;11.05;48.75
60489;BME280;46331;49.252;8.904;2024-03-29T02:31:05;97842.34;;;11.02;49.07
60489;BME280;46331;49.252;8.904;2024-03-29T02:31:45;97837.25;;;11.05;48.79
60489;BME280;46331;49.252;8.904;2024-03-29T02:32:26;97849.38;;;11.12;48.84
60489;BME280;46331;49.252;8.904;2024-03-29T02:33:06;97845.16;;;11.11;49.01
60489;BME280;46331;49.252;8.904;2024-03-29T02:33:47;97847.53;;;11.12;48.86
60489;BME280;46331;49.252;8.904;2024-03-29T02:34:27;97853.03;;;11.16;49.06
60489;BME280;46331;49.252;8.904;2024-03-29T02:35:08;97849.59;;;11.15;48.92
60489;BME280;46331;49.252;8.904;2024-03-29T02:35:49;97853.03;;;11.16;48.84
60489;BME280;46331;49.252;8.904;2024-03-29T02:36:29;97852.47;;;11.19;48.48
60489;BME280;46331;49.252;8.904;2024-03-29T02:37:10;97851.25;;;11.11;48.39
60489;BME280;46331;49.252;8.904;2024-03-29T02:37:50;97848.75;;;11.20;48.64
60489;BME280;46331;49.252;8.904;2024-03-29T02:38:31;97852.53;;;11.14;48.78
60489;BME280;46331;49.252;8.904;2024-03-29T02:39:12;97850.66;;;11.14;48.87
60489;BME280;46331;49.252;8.904;2024-03-29T02:39:52;97853.31;;;11.14;48.40
60489;BME280;46331;49.252;8.904;2024-03-29T02:40:33;97848.75;;;11.20;48.32
60489;BME280;46331;49.252;8.904;2024-03-29T02:41:13;97854.19;;;11.09;47.94
60489;BME280;46331;49.252;8.904;2024-03-29T02:41:54;97841.97;;;11.08;48.71
60489;BME280;46331;49.252;8.904;2024-03-29T02:42:34;97835.69;;;11.04;48.68
60489;BME280;46331;49.252;8.904;2024-03-29T02:43:16;97831.44;;;11.03;48.75
60489;BME280;46331;49.252;8.904;2024-03-29T02:43:56;97831.09;;;11.10;48.74
60489;BME280;46331;49.252;8.904;2024-03-29T02:44:37;97837.69;;;11.13;48.91
60489;BME280;46331;49.252;8.904;2024-03-29T02:45:17;97839.75;;;11.16;49.08
60489;BME280;46331;49.252;8.904;2024-03-29T02:45:58;97835.91;;;11.08;48.02
60489;BME280;46331;49.252;8.904;2024-03-29T02:46:38;97842.41;;;11.16;48.34
60489;BME280;46331;49.252;8.904;2024-03-29T02:47:19;97841.69;;;11.10;48.41
60489;BME280;46331;49.252;8.904;2024-03-29T02:47:59;97826.50;;;11.16;48.42
60489;BME280;46331;49.252;8.904;2024-03-29T02:48:40;97831.03;;;11.15;48.24
60489;BME280;46331;49.252;8.904;2024-03-29T02:49:21;97833.97;;;11.14;48.79
60489;BME280;46331;49.252;8.904;2024-03-29T02:50:02;97837.59;;;11.18;48.06
60489;BME280;46331;49.252;8.904;2024-03-29T02:50:43;97838.13;;;11.20;47.93
60489;BME280;46331;49.252;8.904;2024-03-29T02:51:24;97844.56;;;11.14;48.22
60489;BME280;46331;49.252;8.904;2024-03-29T02:52:04;97838.91;;;11.20;48.09
60489;BME280;46331;49.252;8.904;2024-03-29T02:52:45;97845.50;;;11.23;48.30
60489;BME280;46331;49.252;8.904;2024-03-29T02:53:25;97841.75;;;11.24;48.03
60489;BME280;46331;49.252;8.904;2024-03-29T02:54:06;97844.41;;;11.24;48.01
60489;BME280;46331;49.252;8.904;2024-03-29T02:54:47;97846.78;;;11.25;48.46
60489;BME280;46331;49.252;8.904;2024-03-29T02:55:27;97856.03;;;11.28;47.82
60489;BME280;46331;49.252;8.904;2024-03-29T02:56:08;97846.00;;;11.25;47.69
60489;BME280;46331;49.252;8.904;2024-03-29T02:56:48;97848.38;;;11.26;47.53
60489;BME280;46331;49.252;8.904;2024-03-29T02:57:29;97850.81;;;11.23;47.99
60489;BME280;46331;49.252;8.904;2024-03-29T02:58:09;97858.50;;;11.24;47.83
60489;BME280;46331;49.252;8.904;2024-03-29T02:58:51;97860.63;;;11.22;47.33
60489;BME280;46331;49.252;8.904;2024-03-29T02:59:32;97858.13;;;11.31;47.58
60489;BME280;46331;49.252;8.904;2024-03-29T03:00:13;97861.78;;;11.35;46.86
60489;BME280;46331;49.252;8.904;2024-03-29T03:00:53;97859.19;;;11.30;47.05
60489;BME280;46331;49.252;8.904;2024-03-29T03:01:34;97860.47;;;11.33;46.68
60489;BME280;46331;49.252;8.904;2024-03-29T03:02:14;97853.81;;;11.35;47.25
60489;BME280;46331;49.252;8.904;2024-03-29T03:02:55;97851.94;;;11.36;47.44
60489;BME280;46331;49.252;8.904;2024-03-29T03:03:36;97851.94;;;11.36;47.03
60489;BME280;46331;49.252;8.904;2024-03-29T03:04:17;97858.03;;;11.36;47.17
60489;BME280;46331;49.252;8.904;2024-03-29T03:04:57;97846.06;;;11.39;47.05
60489;BME280;46331;49.252;8.904;2024-03-29T03:05:39;97846.56;;;11.41;47.02
60489;BME280;46331;49.252;8.904;2024-03-29T03:06:20;97851.09;;;11.40;46.99
60489;BME280;46331;49.252;8.904;2024-03-29T03:07:00;97848.81;;;11.34;47.05
60489;BME280;46331;49.252;8.904;2024-03-29T03:08:00;97858.03;;;11.36;46.83
60489;BME280;46331;49.252;8.904;2024-03-29T03:08:59;97857.47;;;11.39;46.96
60489;BME280;46331;49.252;8.904;2024-03-29T03:09:58;97854.16;;;11.48;46.82
60489;BME280;46331;49.252;8.904;2024-03-29T03:11:13;97860.47;;;11.52;47.19
60489;BME280;46331;49.252;8.904;2024-03-29T03:11:54;97864.22;;;11.51;47.16
60489;BME280;46331;49.252;8.904;2024-03-29T03:12:34;97862.34;;;11.51;46.46
60489;BME280;46331;49.252;8.904;2024-03-29T03:13:15;97854.84;;;11.53;47.08
60489;BME280;46331;49.252;8.904;2024-03-29T03:13:55;97853.59;;;11.32;46.24
60489;BME280;46331;49.252;8.904;2024-03-29T03:14:36;97852.97;;;11.40;46.71
60489;BME280;46331;49.252;8.904;2024-03-29T03:15:16;97846.34;;;11.37;46.26
60489;BME280;46331;49.252;8.904;2024-03-29T03:15:57;97854.66;;;11.50;46.38
60489;BME280;46331;49.252;8.904;2024-03-29T03:16:38;97861.84;;;11.49;46.32
60489;BME280;46331;49.252;8.904;2024-03-29T03:17:18;97858.31;;;11.54;46.33
60489;BME280;46331;49.252;8.904;2024-03-29T03:17:58;97845.97;;;11.44;46.89
60489;BME280;46331;49.252;8.904;2024-03-29T03:18:39;97847.41;;;11.55;46.46
60489;BME280;46331;49.252;8.904;2024-03-29T03:19:20;97850.84;;;11.56;46.84
60489;BME280;46331;49.252;8.904;2024-03-29T03:20:00;97848.78;;;11.53;46.76
60489;BME280;46331;49.252;8.904;2024-03-29T03:20:41;97846.22;;;11.48;46.01
60489;BME280;46331;49.252;8.904;2024-03-29T03:21:21;97857.13;;;11.46;46.01
60489;BME280;46331;49.252;8.904;2024-03-29T03:22:02;97832.72;;;11.44;46.08
60489;BME280;46331;49.252;8.904;2024-03-29T03:22:42;97840.97;;;11.42;45.97
60489;BME280;46331;49.252;8.904;2024-03-29T03:23:24;97844.97;;;11.59;46.12
60489;BME280;46331;49.252;8.904;2024-03-29T03:24:05;97847.28;;;11.47;45.90
60489;BME280;46331;49.252;8.904;2024-03-29T03:24:45;97852.59;;;11.47;45.70
60489;BME280;46331;49.252;8.904;2024-03-29T03:25:27;97854.50;;;11.60;46.17
60489;BME280;46331;49.252;8.904;2024-03-29T03:26:07;97857.75;;;11.57;45.58
60489;BME280;46331;49.252;8.904;2024-03-29T03:26:48;97849.13;;;11.65;46.05
60489;BME280;46331;49.252;8.904;2024-03-29T03:27:28;97847.75;;;11.68;46.07
60489;BME280;46331;49.252;8.904;2024-03-29T03:28:09;97844.00;;;11.69;45.79
60489;BME280;46331;49.252;8.904;2024-03-29T03:28:50;97848.09;;;11.61;46.02
60489;BME280;46331;49.252;8.904;2024-03-29T03:29:30;97858.66;;;11.66;45.73
60489;BME280;46331;49.252;8.904;2024-03-29T03:30:11;97849.03;;;11.70;45.73
60489;BME280;46331;49.252;8.904;2024-03-29T03:30:53;97849.72;;;11.76;45.04
60489;BME280;46331;49.252;8.904;2024-03-29T03:31:33;97852.69;;;11.74;45.56
60489;BME280;46331;49.252;8.904;2024-03-29T03:32:14;97856.41;;;11.73;45.37
60489;BME280;46331;49.252;8.904;2024-03-29T03:32:55;97864.09;;;11.75;45.61
60489;BME280;46331;49.252;8.904;2024-03-29T03:33:35;97858.47;;;11.76;45.54
60489;BME280;46331;49.252;8.904;2024-03-29T03:34:15;97861.66;;;11.78;45.67
60489;BME280;46331;49.252;8.904;2024-03-29T03:34:56;97868.63;;;11.74;45.57
60489;BME280;46331;49.252;8.904;2024-03-29T03:35:36;97864.63;;;11.58;46.35
60489;BME280;46331;49.252;8.904;2024-03-29T03:36:17;97866.34;;;11.49;45.93
60489;BME280;46331;49.252;8.904;2024-03-29T03:36:57;97868.22;;;11.48;45.88
60489;BME280;46331;49.252;8.904;2024-03-29T03:37:38;97883.28;;;11.53;45.83
60489;BME280;46331;49.252;8.904;2024-03-29T03:38:18;97895.53;;;11.49;46.14
60489;BME280;46331;49.252;8.904;2024-03-29T03:38:59;97898.28;;;11.43;46.56